sensor_id;sensor_type;location;lat;lon;timestamp;pressure;altitude;pressure_sealevel;temperature;humidity
63343;BME280;49465;57.664;39.686;2022-08-03T00:00:09;100645.00;;;21.03;54.52
63343;BME280;49465;57.664;39.686;2022-08-03T00:05:49;100655.00;;;21.01;54.74
63343;BME280;49465;57.664;39.686;2022-08-03T00:08:34;100655.03;;;21.09;53.59
63343;BME280;49465;57.664;39.686;2022-08-03T00:11:13;100661.63;;;20.97;54.33
63343;BME280;49465;57.664;39.686;2022-08-03T00:13:44;100657.31;;;20.96;54.15
63343;BME280;49465;57.664;39.686;2022-08-03T00:19:27;100654.81;;;20.94;55.17
63343;BME280;49465;57.664;39.686;2022-08-03T00:21:54;100656.38;;;20.79;54.68
63343;BME280;49465;57.664;39.686;2022-08-03T00:24:49;100667.44;;;20.92;54.36
63343;BME280;49465;57.664;39.686;2022-08-03T00:27:21;100663.53;;;20.78;54.65
63343;BME280;49465;57.664;39.686;2022-08-03T00:30:09;100663.25;;;20.89;54.89
63343;BME280;49465;57.664;39.686;2022-08-03T00:35:56;100662.00;;;21.02;53.08
63343;BME280;49465;57.664;39.686;2022-08-03T00:38:30;100663.25;;;20.89;54.54
63343;BME280;49465;57.664;39.686;2022-08-03T00:41:24;100665.66;;;21.01;54.21
63343;BME280;49465;57.664;39.686;2022-08-03T00:44:07;100664.97;;;20.99;54.50
63343;BME280;49465;57.664;39.686;2022-08-03T00:46:47;100666.09;;;20.88;55.49
63343;BME280;49465;57.664;39.686;2022-08-03T00:49:31;100670.31;;;20.99;54.13
63343;BME280;49465;57.664;39.686;2022-08-03T00:52:02;100663.84;;;20.75;55.88
63343;BME280;49465;57.664;39.686;2022-08-03T00:54:51;100667.59;;;20.90;54.96
63343;BME280;49465;57.664;39.686;2022-08-03T00:57:22;100664.31;;;20.70;55.96
63343;BME280;49465;57.664;39.686;2022-08-03T00:59:54;100664.75;;;20.84;55.72
63343;BME280;49465;57.664;39.686;2022-08-03T01:02:33;100656.91;;;20.82;55.78
63343;BME280;49465;57.664;39.686;2022-08-03T01:05:11;100655.97;;;20.91;54.61
63343;BME280;49465;57.664;39.686;2022-08-03T01:08:18;100656.69;;;21.02;53.74
63343;BME280;49465;57.664;39.686;2022-08-03T01:11:18;100648.63;;;20.67;55.73
63343;BME280;49465;57.664;39.686;2022-08-03T01:14:20;100656.47;;;20.95;54.03
63343;BME280;49465;57.664;39.686;2022-08-03T01:20:23;100651.56;;;20.82;54.79
63343;BME280;49465;57.664;39.686;2022-08-03T01:26:30;100660.66;;;20.98;52.46
63343;BME280;49465;57.664;39.686;2022-08-03T01:29:54;100650.78;;;20.90;53.05
63343;BME280;49465;57.664;39.686;2022-08-03T01:33:05;100659.13;;;20.69;54.79
63343;BME280;49465;57.664;39.686;2022-08-03T01:35:35;100660.00;;;20.78;53.64
63343;BME280;49465;57.664;39.686;2022-08-03T01:38:32;100658.66;;;20.73;53.67
63343;BME280;49465;57.664;39.686;2022-08-03T01:41:26;100657.81;;;20.73;53.67
63343;BME280;49465;57.664;39.686;2022-08-03T01:44:08;100653.13;;;20.67;53.83
63343;BME280;49465;57.664;39.686;2022-08-03T01:46:52;100660.09;;;20.68;54.04
63343;BME280;49465;57.664;39.686;2022-08-03T01:49:23;100663.88;;;20.39;55.36
63343;BME280;49465;57.664;39.686;2022-08-03T01:51:55;100664.22;;;20.44;55.81
63343;BME280;49465;57.664;39.686;2022-08-03T01:54:34;100667.56;;;20.46;55.24
63343;BME280;49465;57.664;39.686;2022-08-03T01:57:14;100661.19;;;20.39;55.73
63343;BME280;49465;57.664;39.686;2022-08-03T01:59:48;100662.72;;;20.42;55.81
63343;BME280;49465;57.664;39.686;2022-08-03T02:02:29;100667.06;;;20.43;55.00
63343;BME280;49465;57.664;39.686;2022-08-03T02:05:01;100662.13;;;20.30;55.73
63343;BME280;49465;57.664;39.686;2022-08-03T02:07:40;100667.28;;;20.49;54.46
63343;BME280;49465;57.664;39.686;2022-08-03T02:10:23;100663.31;;;20.53;54.24
63343;BME280;49465;57.664;39.686;2022-08-03T02:13:04;100663.53;;;20.42;55.62
63343;BME280;49465;57.664;39.686;2022-08-03T02:15:37;100657.94;;;20.27;56.50
63343;BME280;49465;57.664;39.686;2022-08-03T02:18:19;100667.22;;;20.41;55.56
63343;BME280;49465;57.664;39.686;2022-08-03T02:21:02;100675.94;;;20.51;54.85
63343;BME280;49465;57.664;39.686;2022-08-03T02:23:38;100663.94;;;20.29;56.07
63343;BME280;49465;57.664;39.686;2022-08-03T02:26:28;100661.47;;;20.54;54.67
63343;BME280;49465;57.664;39.686;2022-08-03T02:29:15;100663.31;;;20.53;54.47
63343;BME280;49465;57.664;39.686;2022-08-03T02:31:52;100664.53;;;20.41;55.61
63343;BME280;49465;57.664;39.686;2022-08-03T02:34:34;100668.72;;;20.44;55.46
63343;BME280;49465;57.664;39.686;2022-08-03T02:37:26;100673.50;;;20.40;55.64
63343;BME280;49465;57.664;39.686;2022-08-03T02:40:09;100661.94;;;20.49;54.79
63343;BME280;49465;57.664;39.686;2022-08-03T02:43:02;100669.88;;;20.41;55.80
63343;BME280;49465;57.664;39.686;2022-08-03T02:45:42;100669.72;;;20.43;55.87
63343;BME280;49465;57.664;39.686;2022-08-03T02:48:36;100676.84;;;20.42;56.08
63343;BME280;49465;57.664;39.686;2022-08-03T02:51:17;100673.75;;;20.47;55.28
63343;BME280;49465;57.664;39.686;2022-08-03T02:53:56;100675.66;;;20.54;55.27
63343;BME280;49465;57.664;39.686;2022-08-03T02:56:47;100677.38;;;20.46;56.47
63343;BME280;49465;57.664;39.686;2022-08-03T02:59:31;100684.03;;;20.60;55.78
63343;BME280;49465;57.664;39.686;2022-08-03T03:02:07;100679.63;;;20.50;56.43
63343;BME280;49465;57.664;39.686;2022-08-03T03:04:58;100683.06;;;20.61;56.21
63343;BME280;49465;57.664;39.686;2022-08-03T03:07:49;100680.06;;;20.64;56.72
63343;BME280;49465;57.664;39.686;2022-08-03T03:10:30;100684.41;;;20.65;57.08
63343;BME280;49465;57.664;39.686;2022-08-03T03:13:00;100680.91;;;20.64;57.38
63343;BME280;49465;57.664;39.686;2022-08-03T03:15:46;100684.31;;;20.74;56.90
63343;BME280;49465;57.664;39.686;2022-08-03T03:18:19;100681.66;;;20.74;57.76
63343;BME280;49465;57.664;39.686;2022-08-03T03:21:14;100678.41;;;20.89;57.20
63343;BME280;49465;57.664;39.686;2022-08-03T03:23:53;100683.88;;;21.05;56.86
63343;BME280;49465;57.664;39.686;2022-08-03T03:26:34;100685.84;;;21.03;55.96
63343;BME280;49465;57.664;39.686;2022-08-03T03:29:29;100685.75;;;21.13;55.42
63343;BME280;49465;57.664;39.686;2022-08-03T03:32:10;100695.78;;;21.19;54.94
63343;BME280;49465;57.664;39.686;2022-08-03T03:34:58;100694.78;;;21.46;54.23
63343;BME280;49465;57.664;39.686;2022-08-03T03:37:29;100693.09;;;21.45;54.37
63343;BME280;49465;57.664;39.686;2022-08-03T03:40:18;100697.31;;;21.56;54.02
63343;BME280;49465;57.664;39.686;2022-08-03T03:42:47;100694.13;;;21.52;54.71
63343;BME280;49465;57.664;39.686;2022-08-03T03:45:26;100700.03;;;21.72;53.93
63343;BME280;49465;57.664;39.686;2022-08-03T03:48:10;100689.16;;;21.66;54.29
63343;BME280;49465;57.664;39.686;2022-08-03T03:50:48;100695.75;;;21.88;53.64
63343;BME280;49465;57.664;39.686;2022-08-03T03:53:23;100693.59;;;21.91;53.74
63343;BME280;49465;57.664;39.686;2022-08-03T03:55:52;100695.41;;;21.91;53.58
63343;BME280;49465;57.664;39.686;2022-08-03T03:58:21;100700.59;;;22.01;54.00
63343;BME280;49465;57.664;39.686;2022-08-03T04:00:53;100700.16;;;22.14;53.34
63343;BME280;49465;57.664;39.686;2022-08-03T04:03:44;100698.16;;;22.16;53.01
63343;BME280;49465;57.664;39.686;2022-08-03T04:06:33;100705.38;;;22.40;52.90
63343;BME280;49465;57.664;39.686;2022-08-03T04:09:19;100700.38;;;22.45;52.57
63343;BME280;49465;57.664;39.686;2022-08-03T04:12:04;100705.06;;;22.59;52.82
63343;BME280;49465;57.664;39.686;2022-08-03T04:14:38;100705.88;;;22.84;52.12
63343;BME280;49465;57.664;39.686;2022-08-03T04:17:07;100713.38;;;22.89;52.99
63343;BME280;49465;57.664;39.686;2022-08-03T04:19:41;100713.72;;;23.10;51.92
63343;BME280;49465;57.664;39.686;2022-08-03T04:22:24;100710.63;;;23.38;51.11
63343;BME280;49465;57.664;39.686;2022-08-03T04:25:13;100710.72;;;23.61;51.16
63343;BME280;49465;57.664;39.686;2022-08-03T04:30:36;100718.00;;;23.84;51.54
63343;BME280;49465;57.664;39.686;2022-08-03T04:33:16;100718.97;;;23.91;51.70
63343;BME280;49465;57.664;39.686;2022-08-03T04:35:56;100718.13;;;24.22;49.73
63343;BME280;49465;57.664;39.686;2022-08-03T04:39:05;100706.59;;;24.44;49.41
63343;BME280;49465;57.664;39.686;2022-08-03T04:41:45;100710.91;;;24.45;49.57
63343;BME280;49465;57.664;39.686;2022-08-03T04:44:19;100711.47;;;24.64;49.04
63343;BME280;49465;57.664;39.686;2022-08-03T04:46:46;100714.44;;;25.22;48.15
63343;BME280;49465;57.664;39.686;2022-08-03T04:49:23;100710.06;;;25.06;47.93
63343;BME280;49465;57.664;39.686;2022-08-03T04:52:04;100707.81;;;25.33;48.38
63343;BME280;49465;57.664;39.686;2022-08-03T04:54:39;100722.41;;;25.45;47.87
63343;BME280;49465;57.664;39.686;2022-08-03T04:57:12;100721.97;;;25.56;48.27
63343;BME280;49465;57.664;39.686;2022-08-03T04:59:59;100717.06;;;25.81;47.03
63343;BME280;49465;57.664;39.686;2022-08-03T05:02:41;100720.50;;;25.90;46.96
63343;BME280;49465;57.664;39.686;2022-08-03T05:05:20;100716.00;;;26.12;46.25
63343;BME280;49465;57.664;39.686;2022-08-03T05:07:59;100719.34;;;26.14;46.33
63343;BME280;49465;57.664;39.686;2022-08-03T05:10:29;100715.84;;;26.14;46.39
63343;BME280;49465;57.664;39.686;2022-08-03T05:13:06;100721.47;;;26.40;46.03
63343;BME280;49465;57.664;39.686;2022-08-03T05:16:10;100715.38;;;26.53;44.96
63343;BME280;49465;57.664;39.686;2022-08-03T05:18:42;100725.78;;;26.78;44.67
63343;BME280;49465;57.664;39.686;2022-08-03T05:21:17;100721.31;;;26.92;43.62
63343;BME280;49465;57.664;39.686;2022-08-03T05:23:57;100717.53;;;27.42;44.10
63343;BME280;49465;57.664;39.686;2022-08-03T05:26:36;100720.75;;;27.03;43.80
63343;BME280;49465;57.664;39.686;2022-08-03T05:29:15;100726.44;;;27.15;44.07
63343;BME280;49465;57.664;39.686;2022-08-03T05:31:55;100721.28;;;27.20;43.16
63343;BME280;49465;57.664;39.686;2022-08-03T05:34:29;100728.13;;;27.22;43.07
63343;BME280;49465;57.664;39.686;2022-08-03T05:37:05;100725.19;;;27.46;43.60
63343;BME280;49465;57.664;39.686;2022-08-03T05:40:00;100725.88;;;27.54;43.77
63343;BME280;49465;57.664;39.686;2022-08-03T05:42:30;100727.59;;;27.69;43.79
63343;BME280;49465;57.664;39.686;2022-08-03T05:45:20;100734.38;;;27.99;43.29
63343;BME280;49465;57.664;39.686;2022-08-03T05:47:47;100730.44;;;28.09;43.14
63343;BME280;49465;57.664;39.686;2022-08-03T05:50:19;100733.78;;;28.24;41.76
63343;BME280;49465;57.664;39.686;2022-08-03T05:52:46;100739.59;;;28.34;41.83
63343;BME280;49465;57.664;39.686;2022-08-03T05:55:12;100727.59;;;28.44;41.70
63343;BME280;49465;57.664;39.686;2022-08-03T05:57:45;100732.63;;;28.67;41.61
63343;BME280;49465;57.664;39.686;2022-08-03T06:00:14;100723.06;;;28.77;40.73
63343;BME280;49465;57.664;39.686;2022-08-03T06:02:41;100724.91;;;28.97;41.40
63343;BME280;49465;57.664;39.686;2022-08-03T06:05:08;100727.84;;;29.15;41.73
63343;BME280;49465;57.664;39.686;2022-08-03T06:07:35;100736.09;;;29.34;41.37
63343;BME280;49465;57.664;39.686;2022-08-03T06:10:07;100728.75;;;29.61;40.34
63343;BME280;49465;57.664;39.686;2022-08-03T06:12:47;100732.44;;;29.80;40.50
63343;BME280;49465;57.664;39.686;2022-08-03T06:15:19;100724.69;;;29.90;40.20
63343;BME280;49465;57.664;39.686;2022-08-03T06:17:57;100735.38;;;30.17;39.73
63343;BME280;49465;57.664;39.686;2022-08-03T06:20:32;100735.69;;;30.34;39.00
63343;BME280;49465;57.664;39.686;2022-08-03T06:23:20;100732.00;;;30.53;38.89
63343;BME280;49465;57.664;39.686;2022-08-03T06:26:00;100738.41;;;30.59;37.40
63343;BME280;49465;57.664;39.686;2022-08-03T06:28:52;100737.09;;;30.68;38.26
63343;BME280;49465;57.664;39.686;2022-08-03T06:31:35;100739.44;;;30.90;38.70
63343;BME280;49465;57.664;39.686;2022-08-03T06:34:28;100739.69;;;31.07;38.79
63343;BME280;49465;57.664;39.686;2022-08-03T06:36:55;100738.25;;;31.04;37.66
63343;BME280;49465;57.664;39.686;2022-08-03T06:39:41;100739.19;;;31.35;38.37
63343;BME280;49465;57.664;39.686;2022-08-03T06:42:07;100735.34;;;31.24;37.08
63343;BME280;49465;57.664;39.686;2022-08-03T06:44:34;100740.75;;;31.24;36.62
63343;BME280;49465;57.664;39.686;2022-08-03T06:47:00;100739.25;;;31.28;37.28
63343;BME280;49465;57.664;39.686;2022-08-03T06:49:26;100748.53;;;31.39;36.63
63343;BME280;49465;57.664;39.686;2022-08-03T06:51:53;100743.22;;;31.51;36.03
63343;BME280;49465;57.664;39.686;2022-08-03T06:54:23;100742.25;;;31.64;35.72
63343;BME280;49465;57.664;39.686;2022-08-03T06:56:50;100747.72;;;31.76;36.52
63343;BME280;49465;57.664;39.686;2022-08-03T06:59:21;100744.25;;;31.99;35.50
63343;BME280;49465;57.664;39.686;2022-08-03T07:01:53;100741.41;;;32.12;36.22
63343;BME280;49465;57.664;39.686;2022-08-03T07:04:19;100739.28;;;32.14;35.33
63343;BME280;49465;57.664;39.686;2022-08-03T07:06:50;100745.09;;;32.18;33.97
63343;BME280;49465;57.664;39.686;2022-08-03T07:09:17;100732.72;;;32.22;34.70
63343;BME280;49465;57.664;39.686;2022-08-03T07:11:43;100738.28;;;32.27;34.74
63343;BME280;49465;57.664;39.686;2022-08-03T07:14:10;100741.59;;;32.29;34.95
63343;BME280;49465;57.664;39.686;2022-08-03T07:16:36;100745.72;;;32.31;34.41
63343;BME280;49465;57.664;39.686;2022-08-03T07:19:15;100752.94;;;32.49;33.74
63343;BME280;49465;57.664;39.686;2022-08-03T07:21:42;100748.81;;;32.47;33.93
63343;BME280;49465;57.664;39.686;2022-08-03T07:24:12;100745.41;;;32.51;33.91
63343;BME280;49465;57.664;39.686;2022-08-03T07:26:47;100754.31;;;32.70;34.97
63343;BME280;49465;57.664;39.686;2022-08-03T07:29:19;100746.63;;;32.79;34.35
63343;BME280;49465;57.664;39.686;2022-08-03T07:31:48;100745.59;;;32.80;34.33
63343;BME280;49465;57.664;39.686;2022-08-03T07:34:19;100746.91;;;32.78;33.50
63343;BME280;49465;57.664;39.686;2022-08-03T07:37:05;100750.28;;;33.08;34.08
63343;BME280;49465;57.664;39.686;2022-08-03T07:39:32;100752.78;;;32.98;34.13
63343;BME280;49465;57.664;39.686;2022-08-03T07:42:02;100750.78;;;33.05;34.81
63343;BME280;49465;57.664;39.686;2022-08-03T07:44:40;100755.84;;;33.37;33.97
63343;BME280;49465;57.664;39.686;2022-08-03T07:47:06;100753.38;;;33.24;33.60
63343;BME280;49465;57.664;39.686;2022-08-03T07:49:33;100763.31;;;33.30;34.02
63343;BME280;49465;57.664;39.686;2022-08-03T07:52:15;100754.06;;;33.55;34.53
63343;BME280;49465;57.664;39.686;2022-08-03T07:54:59;100758.78;;;33.47;32.01
63343;BME280;49465;57.664;39.686;2022-08-03T07:57:26;100754.28;;;33.53;33.37
63343;BME280;49465;57.664;39.686;2022-08-03T07:59:57;100758.06;;;33.76;32.96
63343;BME280;49465;57.664;39.686;2022-08-03T08:02:24;100757.19;;;33.75;32.58
63343;BME280;49465;57.664;39.686;2022-08-03T08:04:55;100756.53;;;33.97;32.20
63343;BME280;49465;57.664;39.686;2022-08-03T08:07:30;100754.41;;;33.99;31.21
63343;BME280;49465;57.664;39.686;2022-08-03T08:09:57;100753.34;;;34.00;31.25
63343;BME280;49465;57.664;39.686;2022-08-03T08:12:28;100761.22;;;34.13;30.04
63343;BME280;49465;57.664;39.686;2022-08-03T08:14:59;100757.81;;;34.06;29.88
63343;BME280;49465;57.664;39.686;2022-08-03T08:17:53;100764.66;;;34.37;30.93
63343;BME280;49465;57.664;39.686;2022-08-03T08:20:27;100763.59;;;34.38;31.39
63343;BME280;49465;57.664;39.686;2022-08-03T08:23:16;100756.75;;;34.53;31.16
63343;BME280;49465;57.664;39.686;2022-08-03T08:28:46;100756.19;;;34.51;28.26
63343;BME280;49465;57.664;39.686;2022-08-03T08:31:15;100763.25;;;34.52;29.06
63343;BME280;49465;57.664;39.686;2022-08-03T08:33:54;100758.97;;;34.56;29.33
63343;BME280;49465;57.664;39.686;2022-08-03T08:36:32;100758.31;;;34.65;28.73
63343;BME280;49465;57.664;39.686;2022-08-03T08:39:07;100753.84;;;34.59;27.66
63343;BME280;49465;57.664;39.686;2022-08-03T08:41:37;100753.78;;;34.54;29.71
63343;BME280;49465;57.664;39.686;2022-08-03T08:44:14;100761.16;;;34.71;29.52
63343;BME280;49465;57.664;39.686;2022-08-03T08:46:52;100764.19;;;34.91;30.62
63343;BME280;49465;57.664;39.686;2022-08-03T08:49:22;100764.59;;;34.83;29.47
63343;BME280;49465;57.664;39.686;2022-08-03T08:51:59;100763.94;;;34.93;29.19
63343;BME280;49465;57.664;39.686;2022-08-03T08:54:33;100756.72;;;34.81;28.82
63343;BME280;49465;57.664;39.686;2022-08-03T08:57:05;100769.72;;;34.96;29.71
63343;BME280;49465;57.664;39.686;2022-08-03T08:59:37;100768.22;;;35.05;29.88
63343;BME280;49465;57.664;39.686;2022-08-03T09:02:12;100769.44;;;35.15;27.89
63343;BME280;49465;57.664;39.686;2022-08-03T09:04:52;100767.38;;;35.22;28.54
63343;BME280;49465;57.664;39.686;2022-08-03T09:07:36;100766.00;;;35.41;28.49
63343;BME280;49465;57.664;39.686;2022-08-03T09:10:26;100764.94;;;35.42;26.41
63343;BME280;49465;57.664;39.686;2022-08-03T09:13:07;100758.03;;;35.57;27.46
63343;BME280;49465;57.664;39.686;2022-08-03T09:15:45;100770.41;;;35.64;27.91
63343;BME280;49465;57.664;39.686;2022-08-03T09:19:10;100771.09;;;35.77;28.42
63343;BME280;49465;57.664;39.686;2022-08-03T09:21:27;100766.44;;;35.72;26.32
63343;BME280;49465;57.664;39.686;2022-08-03T09:24:07;100768.13;;;35.78;27.15
63343;BME280;49465;57.664;39.686;2022-08-03T09:26:50;100775.53;;;36.05;27.84
63343;BME280;49465;57.664;39.686;2022-08-03T09:29:40;100761.50;;;35.96;27.80
63343;BME280;49465;57.664;39.686;2022-08-03T09:32:35;100770.78;;;35.95;27.47
63343;BME280;49465;57.664;39.686;2022-08-03T09:35:15;100769.75;;;36.01;26.46
63343;BME280;49465;57.664;39.686;2022-08-03T09:37:42;100761.63;;;35.79;26.72
63343;BME280;49465;57.664;39.686;2022-08-03T09:40:42;100764.09;;;36.08;26.14
63343;BME280;49465;57.664;39.686;2022-08-03T09:43:19;100764.56;;;36.00;27.21
63343;BME280;49465;57.664;39.686;2022-08-03T09:48:36;100761.91;;;35.83;27.03
63343;BME280;49465;57.664;39.686;2022-08-03T09:51:53;100766.78;;;36.03;27.62
63343;BME280;49465;57.664;39.686;2022-08-03T09:54:28;100768.13;;;35.78;25.95
63343;BME280;49465;57.664;39.686;2022-08-03T09:59:53;100770.41;;;35.87;27.51
63343;BME280;49465;57.664;39.686;2022-08-03T10:02:41;100765.81;;;35.92;27.71
63343;BME280;49465;57.664;39.686;2022-08-03T10:05:30;100766.97;;;35.96;26.52
63343;BME280;49465;57.664;39.686;2022-08-03T10:08:18;100781.00;;;36.10;27.49
63343;BME280;49465;57.664;39.686;2022-08-03T10:10:47;100771.59;;;35.96;26.01
63343;BME280;49465;57.664;39.686;2022-08-03T10:13:25;100782.25;;;36.19;27.02
63343;BME280;49465;57.664;39.686;2022-08-03T10:16:00;100779.25;;;36.21;25.76
63343;BME280;49465;57.664;39.686;2022-08-03T10:18:43;100783.31;;;36.18;26.47
63343;BME280;49465;57.664;39.686;2022-08-03T10:21:34;100784.41;;;36.17;25.28
63343;BME280;49465;57.664;39.686;2022-08-03T10:24:08;100782.00;;;36.21;27.13
63343;BME280;49465;57.664;39.686;2022-08-03T10:26:55;100784.00;;;36.31;26.86
63343;BME280;49465;57.664;39.686;2022-08-03T10:29:54;100777.09;;;36.55;24.98
63343;BME280;49465;57.664;39.686;2022-08-03T10:32:56;100781.09;;;36.70;26.85
63343;BME280;49465;57.664;39.686;2022-08-03T10:35:43;100790.00;;;36.60;25.83
63343;BME280;49465;57.664;39.686;2022-08-03T10:38:32;100775.50;;;36.59;26.03
63343;BME280;49465;57.664;39.686;2022-08-03T10:41:21;100789.28;;;36.75;26.59
63343;BME280;49465;57.664;39.686;2022-08-03T10:44:09;100790.13;;;36.75;26.62
63343;BME280;49465;57.664;39.686;2022-08-03T10:46:39;100779.88;;;36.60;25.58
63343;BME280;49465;57.664;39.686;2022-08-03T10:49:21;100782.72;;;36.71;25.48
63343;BME280;49465;57.664;39.686;2022-08-03T10:51:54;100786.72;;;36.63;26.23
63343;BME280;49465;57.664;39.686;2022-08-03T10:54:41;100778.94;;;36.77;26.84
63343;BME280;49465;57.664;39.686;2022-08-03T10:57:52;100781.34;;;36.68;25.09
63343;BME280;49465;57.664;39.686;2022-08-03T11:00:28;100774.50;;;36.38;25.75
63343;BME280;49465;57.664;39.686;2022-08-03T11:03:23;100776.44;;;36.43;26.16
63343;BME280;49465;57.664;39.686;2022-08-03T11:06:13;100782.22;;;36.79;26.62
63343;BME280;49465;57.664;39.686;2022-08-03T11:08:49;100776.59;;;36.63;25.90
63343;BME280;49465;57.664;39.686;2022-08-03T11:11:30;100772.78;;;36.92;24.78
63343;BME280;49465;57.664;39.686;2022-08-03T11:16:40;100773.44;;;36.72;25.75
63343;BME280;49465;57.664;39.686;2022-08-03T11:19:43;100779.03;;;36.92;26.58
63343;BME280;49465;57.664;39.686;2022-08-03T11:22:50;100785.13;;;37.05;25.35
63343;BME280;49465;57.664;39.686;2022-08-03T11:26:03;100776.88;;;36.94;25.50
63343;BME280;49465;57.664;39.686;2022-08-03T11:28:27;100780.25;;;37.12;26.22
63343;BME280;49465;57.664;39.686;2022-08-03T11:30:54;100766.25;;;36.98;25.36
63343;BME280;49465;57.664;39.686;2022-08-03T11:33:30;100774.88;;;37.17;25.95
63343;BME280;49465;57.664;39.686;2022-08-03T11:36:07;100775.31;;;37.09;26.10
63343;BME280;49465;57.664;39.686;2022-08-03T11:39:12;100770.28;;;37.28;26.47
63343;BME280;49465;57.664;39.686;2022-08-03T11:41:52;100765.06;;;37.21;25.31
63343;BME280;49465;57.664;39.686;2022-08-03T11:44:39;100768.09;;;37.30;25.29
63343;BME280;49465;57.664;39.686;2022-08-03T11:47:16;100770.88;;;37.35;25.20
63343;BME280;49465;57.664;39.686;2022-08-03T11:49:49;100770.59;;;37.36;24.97
63343;BME280;49465;57.664;39.686;2022-08-03T11:52:34;100774.53;;;37.61;26.06
63343;BME280;49465;57.664;39.686;2022-08-03T11:55:05;100770.59;;;37.42;24.25
63343;BME280;49465;57.664;39.686;2022-08-03T11:57:46;100776.69;;;37.59;25.24
63343;BME280;49465;57.664;39.686;2022-08-03T12:00:34;100776.81;;;37.85;25.13
63343;BME280;49465;57.664;39.686;2022-08-03T12:03:19;100769.72;;;37.89;25.03
63343;BME280;49465;57.664;39.686;2022-08-03T12:06:18;100769.75;;;37.99;24.48
63343;BME280;49465;57.664;39.686;2022-08-03T12:08:52;100762.06;;;37.96;24.34
63343;BME280;49465;57.664;39.686;2022-08-03T12:11:32;100762.63;;;38.03;23.77
63343;BME280;49465;57.664;39.686;2022-08-03T12:14:04;100768.91;;;37.93;23.88
63343;BME280;49465;57.664;39.686;2022-08-03T12:16:36;100762.88;;;37.96;24.09
63343;BME280;49465;57.664;39.686;2022-08-03T12:19:14;100765.47;;;38.54;25.38
63343;BME280;49465;57.664;39.686;2022-08-03T12:21:54;100756.94;;;38.25;23.91
63343;BME280;49465;57.664;39.686;2022-08-03T12:24:21;100766.25;;;38.19;25.10
63343;BME280;49465;57.664;39.686;2022-08-03T12:26:52;100767.91;;;38.35;24.61
63343;BME280;49465;57.664;39.686;2022-08-03T12:29:23;100764.34;;;38.30;24.54
63343;BME280;49465;57.664;39.686;2022-08-03T12:31:50;100756.69;;;38.27;24.10
63343;BME280;49465;57.664;39.686;2022-08-03T12:34:21;100765.41;;;38.18;24.74
63343;BME280;49465;57.664;39.686;2022-08-03T12:36:54;100765.41;;;38.18;24.28
63343;BME280;49465;57.664;39.686;2022-08-03T12:39:29;100765.16;;;38.71;25.42
63343;BME280;49465;57.664;39.686;2022-08-03T12:42:16;100770.91;;;38.24;24.57
63343;BME280;49465;57.664;39.686;2022-08-03T12:44:49;100769.53;;;38.26;24.53
63343;BME280;49465;57.664;39.686;2022-08-03T12:47:52;100776.41;;;38.44;24.58
63343;BME280;49465;57.664;39.686;2022-08-03T12:50:40;100781.03;;;38.23;25.43
63343;BME280;49465;57.664;39.686;2022-08-03T12:53:08;100780.22;;;38.23;24.55
63343;BME280;49465;57.664;39.686;2022-08-03T12:55:43;100779.13;;;38.29;25.28
63343;BME280;49465;57.664;39.686;2022-08-03T12:58:36;100777.47;;;38.43;24.40
63343;BME280;49465;57.664;39.686;2022-08-03T13:01:05;100774.75;;;38.23;23.80
63343;BME280;49465;57.664;39.686;2022-08-03T13:04:05;100781.31;;;38.47;24.51
63343;BME280;49465;57.664;39.686;2022-08-03T13:06:40;100774.47;;;38.19;23.90
63343;BME280;49465;57.664;39.686;2022-08-03T13:09:11;100771.16;;;38.22;23.80
63343;BME280;49465;57.664;39.686;2022-08-03T13:11:48;100774.75;;;38.23;24.01
63343;BME280;49465;57.664;39.686;2022-08-03T13:14:35;100772.56;;;38.25;23.56
63343;BME280;49465;57.664;39.686;2022-08-03T13:17:05;100773.09;;;38.27;23.69
63343;BME280;49465;57.664;39.686;2022-08-03T13:19:37;100772.53;;;38.14;23.71
63343;BME280;49465;57.664;39.686;2022-08-03T13:22:28;100766.00;;;38.21;23.71
63343;BME280;49465;57.664;39.686;2022-08-03T13:24:56;100769.47;;;38.06;23.62
63343;BME280;49465;57.664;39.686;2022-08-03T13:27:25;100760.72;;;38.04;23.42
63343;BME280;49465;57.664;39.686;2022-08-03T13:29:55;100768.66;;;38.05;23.58
63343;BME280;49465;57.664;39.686;2022-08-03T13:32:36;100764.84;;;38.01;23.79
63343;BME280;49465;57.664;39.686;2022-08-03T13:35:09;100773.59;;;38.03;23.73
63343;BME280;49465;57.664;39.686;2022-08-03T13:37:46;100766.19;;;38.04;24.10
63343;BME280;49465;57.664;39.686;2022-08-03T13:40:41;100765.38;;;38.03;24.18
63343;BME280;49465;57.664;39.686;2022-08-03T13:43:35;100768.72;;;38.21;25.31
63343;BME280;49465;57.664;39.686;2022-08-03T13:46:18;100756.63;;;38.01;24.86
63343;BME280;49465;57.664;39.686;2022-08-03T13:48:57;100764.03;;;38.16;24.84
63343;BME280;49465;57.664;39.686;2022-08-03T13:51:24;100762.13;;;38.11;24.52
63343;BME280;49465;57.664;39.686;2022-08-03T13:53:54;100756.38;;;38.18;24.32
63343;BME280;49465;57.664;39.686;2022-08-03T13:56:31;100763.50;;;38.29;23.70
63343;BME280;49465;57.664;39.686;2022-08-03T13:59:12;100769.81;;;38.30;23.78
63343;BME280;49465;57.664;39.686;2022-08-03T14:01:47;100767.59;;;38.11;24.37
63343;BME280;49465;57.664;39.686;2022-08-03T14:04:25;100771.47;;;38.21;24.96
63343;BME280;49465;57.664;39.686;2022-08-03T14:07:02;100774.38;;;37.98;24.28
63343;BME280;49465;57.664;39.686;2022-08-03T14:09:47;100763.19;;;38.05;24.25
63343;BME280;49465;57.664;39.686;2022-08-03T14:12:45;100765.59;;;37.86;24.45